createdAt,value
2019-01-25T00:01:18.057Z,10.35
2019-01-25T00:04:23.921Z,10.31
2019-01-25T00:07:29.685Z,10.26
2019-01-25T00:10:35.671Z,10.23
2019-01-25T00:13:41.427Z,10.23
2019-01-25T00:16:47.217Z,9.99
2019-01-25T00:19:52.982Z,10.16
2019-01-25T00:22:58.854Z,10.25
2019-01-25T00:26:05.421Z,10.54
2019-01-25T00:29:11.187Z,10.66
2019-01-25T00:32:16.949Z,10.70
2019-01-25T00:35:22.822Z,10.63
2019-01-25T00:38:28.597Z,10.67
2019-01-25T00:41:34.355Z,10.76
2019-01-25T00:44:40.117Z,10.43
2019-01-25T00:47:46.009Z,10.72
2019-01-25T00:50:51.883Z,10.84
2019-01-25T00:53:57.642Z,10.91
2019-01-25T00:57:03.395Z,11.00
2019-01-25T01:00:16.419Z,11.03
2019-01-25T01:03:22.320Z,10.74
2019-01-25T01:06:28.179Z,10.86
2019-01-25T01:09:33.931Z,10.82
2019-01-25T01:12:39.932Z,10.94
2019-01-25T01:15:45.920Z,10.98
2019-01-25T01:18:51.702Z,11.07
2019-01-25T01:21:57.451Z,11.05
2019-01-25T01:25:03.318Z,10.48
2019-01-25T01:28:09.208Z,10.60
2019-01-25T01:31:14.956Z,10.68
2019-01-25T01:34:20.723Z,10.39
2019-01-25T01:37:26.524Z,10.23
2019-01-25T01:40:32.295Z,10.14
2019-01-25T01:43:38.072Z,9.89
2019-01-25T01:46:43.836Z,9.93
2019-01-25T01:49:50.597Z,9.82
2019-01-25T01:52:56.346Z,9.45
2019-01-25T01:56:02.112Z,9.66
2019-01-25T01:59:07.890Z,9.49
2019-01-25T02:02:13.613Z,9.63
2019-01-25T02:05:19.685Z,9.25
2019-01-25T02:08:25.538Z,9.49
2019-01-25T02:11:31.285Z,8.95
2019-01-25T02:14:37.047Z,9.09
2019-01-25T02:17:42.917Z,9.23
2019-01-25T02:20:48.766Z,9.07
2019-01-25T02:23:54.617Z,9.07
2019-01-25T02:27:00.388Z,9.20
2019-01-25T02:30:09.523Z,9.04
2019-01-25T02:33:15.290Z,9.21
2019-01-25T02:36:21.053Z,9.34
2019-01-25T02:39:26.919Z,9.34
2019-01-25T02:42:33.301Z,9.09
2019-01-25T02:45:39.119Z,8.96
2019-01-25T02:48:44.995Z,8.93
2019-01-25T02:51:50.780Z,8.77
2019-01-25T02:54:56.537Z,8.94
2019-01-25T02:58:02.285Z,9.09
2019-01-25T03:01:08.260Z,8.70
2019-01-25T03:04:14.119Z,8.93
2019-01-25T03:07:19.977Z,8.99
2019-01-25T03:10:29.231Z,9.06
2019-01-25T03:13:33.326Z,8.74
2019-01-25T03:16:39.112Z,8.90
2019-01-25T03:19:44.864Z,8.81
2019-01-25T03:22:50.759Z,8.46
2019-01-25T03:25:56.504Z,8.41
2019-01-25T03:29:02.256Z,8.59
2019-01-25T03:32:08.108Z,8.87
2019-01-25T03:35:14.805Z,8.45
2019-01-25T03:38:20.584Z,8.71
2019-01-25T03:41:26.455Z,8.82
2019-01-25T03:44:32.209Z,8.67
2019-01-25T03:47:38.069Z,8.72
2019-01-25T03:50:43.814Z,8.40
2019-01-25T03:53:49.683Z,8.45
2019-01-25T03:56:55.438Z,8.36
2019-01-25T04:00:01.209Z,8.61
2019-01-25T04:03:07.084Z,8.66
2019-01-25T04:06:12.859Z,8.69
2019-01-25T04:09:18.727Z,8.35
2019-01-25T04:12:24.483Z,8.58
2019-01-25T04:15:32.742Z,8.51
2019-01-25T04:18:38.617Z,8.68
2019-01-25T04:21:44.394Z,8.38
2019-01-25T04:24:51.183Z,8.17
2019-01-25T04:27:56.946Z,8.19
2019-01-25T04:31:02.726Z,8.34
2019-01-25T04:34:08.570Z,8.32
2019-01-25T04:37:14.454Z,8.27
2019-01-25T04:40:20.531Z,8.34
2019-01-25T04:43:26.274Z,8.59
2019-01-25T04:46:32.116Z,8.30
2019-01-25T04:49:37.869Z,8.30
2019-01-25T04:52:43.631Z,8.11
2019-01-25T04:55:49.400Z,7.62
2019-01-25T04:58:55.214Z,8.08
2019-01-25T05:02:01.194Z,8.27
2019-01-25T05:05:07.775Z,8.14
2019-01-25T05:08:18.768Z,8.23
2019-01-25T05:11:24.546Z,8.03
2019-01-25T05:14:34.093Z,8.14
2019-01-25T05:17:39.794Z,7.84
2019-01-25T05:20:46.783Z,7.90
2019-01-25T05:23:52.745Z,7.97
2019-01-25T05:26:59.965Z,8.05
2019-01-25T05:30:08.779Z,8.18
2019-01-25T05:33:14.556Z,8.17
2019-01-25T05:36:20.416Z,7.96
2019-01-25T05:39:26.200Z,8.06
2019-01-25T05:42:32.045Z,8.06
2019-01-25T05:45:40.795Z,7.74
2019-01-25T05:48:46.671Z,8.30
2019-01-25T05:51:52.615Z,8.36
2019-01-25T05:54:58.378Z,8.23
2019-01-25T05:58:04.953Z,7.91
2019-01-25T06:01:10.850Z,7.98
2019-01-25T06:04:16.913Z,8.38
2019-01-25T06:07:28.088Z,8.63
2019-01-25T06:10:38.314Z,8.09
2019-01-25T06:13:45.254Z,8.21
2019-01-25T06:16:51.254Z,8.39
2019-01-25T06:20:09.604Z,8.13
2019-01-25T06:23:15.372Z,8.22
2019-01-25T06:26:21.142Z,8.18
2019-01-25T06:29:31.872Z,8.29
2019-01-25T06:32:37.759Z,8.08
2019-01-25T06:35:43.769Z,8.26
2019-01-25T06:38:49.535Z,8.19
2019-01-25T06:41:55.289Z,8.25
2019-01-25T06:45:01.117Z,8.31
2019-01-25T06:48:07.493Z,8.32
2019-01-25T06:51:13.686Z,8.27
2019-01-25T06:54:19.462Z,8.23
2019-01-25T06:57:35.043Z,8.24
2019-01-25T07:00:44.987Z,8.04
2019-01-25T07:03:50.866Z,7.95
2019-01-25T07:06:56.695Z,8.07
2019-01-25T07:10:02.564Z,8.07
2019-01-25T07:13:08.325Z,8.08
2019-01-25T07:16:14.190Z,8.10
2019-01-25T07:19:19.960Z,7.97
2019-01-25T07:22:25.773Z,8.24
2019-01-25T07:25:31.535Z,8.11
2019-01-25T07:28:37.405Z,8.16
2019-01-25T07:31:43.188Z,8.01
2019-01-25T07:34:48.957Z,8.16
2019-01-25T07:37:54.818Z,8.27
2019-01-25T07:41:00.648Z,8.31
2019-01-25T07:44:06.466Z,8.39
2019-01-25T07:47:12.231Z,8.41
2019-01-25T07:50:18.207Z,8.26
2019-01-25T07:53:24.177Z,8.42
2019-01-25T07:56:30.858Z,8.33
2019-01-25T07:59:36.628Z,8.45
2019-01-25T08:02:43.424Z,8.57
2019-01-25T08:05:49.281Z,8.50
2019-01-25T08:08:55.147Z,8.82
2019-01-25T08:12:07.226Z,8.68
2019-01-25T08:15:11.106Z,8.89
2019-01-25T08:18:16.877Z,8.93
2019-01-25T08:21:22.609Z,8.44
2019-01-25T08:24:28.380Z,8.48
2019-01-25T08:27:34.214Z,8.63
2019-01-25T08:30:40.210Z,8.65
2019-01-25T08:33:47.029Z,8.86
2019-01-25T08:36:52.887Z,8.65
2019-01-25T08:39:58.665Z,9.00
2019-01-25T08:43:04.501Z,8.96
2019-01-25T08:46:10.393Z,8.85
2019-01-25T08:49:16.273Z,8.84
2019-01-25T08:52:22.977Z,8.76
2019-01-25T08:55:28.718Z,8.95
2019-01-25T08:58:35.882Z,8.90
2019-01-25T09:01:41.725Z,8.92
2019-01-25T09:04:47.585Z,9.02
2019-01-25T09:07:53.318Z,8.93
2019-01-25T09:10:59.076Z,9.11
2019-01-25T09:14:04.841Z,9.21
2019-01-25T09:17:10.646Z,9.05
2019-01-25T09:20:18.858Z,9.03
2019-01-25T09:23:24.626Z,9.08
2019-01-25T09:26:30.504Z,9.08
2019-01-25T09:29:36.278Z,9.25
2019-01-25T09:32:42.040Z,9.34
2019-01-25T09:35:47.817Z,9.26
2019-01-25T09:38:53.648Z,9.33
2019-01-25T09:41:59.462Z,9.37
2019-01-25T09:45:06.117Z,9.27
2019-01-25T09:48:11.877Z,9.33
2019-01-25T09:51:17.765Z,9.34
2019-01-25T09:54:23.554Z,9.30
2019-01-25T09:57:29.317Z,9.47
2019-01-25T10:00:41.727Z,9.34
2019-01-25T10:03:47.482Z,9.41
2019-01-25T10:06:53.261Z,9.41
2019-01-25T10:09:59.227Z,9.43
2019-01-25T10:13:05.213Z,9.53
2019-01-25T10:16:11.106Z,9.52
2019-01-25T10:19:16.916Z,9.57
2019-01-25T10:22:22.766Z,9.56
2019-01-25T10:25:28.615Z,9.55
2019-01-25T10:28:34.417Z,9.62
2019-01-25T10:31:40.388Z,9.68
2019-01-25T10:34:46.109Z,9.65
2019-01-25T10:37:52.512Z,9.79
2019-01-25T10:40:58.417Z,9.70
2019-01-25T10:44:04.695Z,9.83
2019-01-25T10:47:10.497Z,9.77
2019-01-25T10:50:16.533Z,9.92
2019-01-25T10:53:22.269Z,10.10
2019-01-25T10:56:28.060Z,10.26
2019-01-25T10:59:34.051Z,10.24
2019-01-25T11:02:39.840Z,10.56
2019-01-25T11:05:45.744Z,10.67
2019-01-25T11:08:52.933Z,10.58
2019-01-25T11:11:59.022Z,10.70
2019-01-25T11:15:05.802Z,10.74
2019-01-25T11:18:11.701Z,10.88
2019-01-25T11:21:17.475Z,10.96
2019-01-25T11:24:23.261Z,10.65
2019-01-25T11:27:29.418Z,10.64
2019-01-25T11:30:35.534Z,10.60
2019-01-25T11:33:41.298Z,10.82
2019-01-25T11:36:47.081Z,10.69
2019-01-25T11:39:52.928Z,10.73
2019-01-25T11:42:58.895Z,10.91
2019-01-25T11:46:05.064Z,10.79
2019-01-25T11:49:10.831Z,10.57
2019-01-25T11:52:16.626Z,10.66
2019-01-25T11:55:22.439Z,10.96
2019-01-25T11:58:28.259Z,10.61
2019-01-25T12:01:34.168Z,10.66
2019-01-25T12:04:39.904Z,10.36
2019-01-25T12:07:45.721Z,10.28
2019-01-25T12:10:51.699Z,10.28
2019-01-25T12:13:57.501Z,10.37
2019-01-25T12:17:03.404Z,10.23
2019-01-25T12:20:12.194Z,10.22
2019-01-25T12:23:17.968Z,10.25
2019-01-25T12:26:23.900Z,10.34
2019-01-25T12:29:29.777Z,10.29
2019-01-25T12:32:35.554Z,10.20
2019-01-25T12:35:45.447Z,10.26
2019-01-25T12:38:51.341Z,10.27
2019-01-25T12:41:57.250Z,10.23
2019-01-25T12:45:02.992Z,10.29
2019-01-25T12:48:09.008Z,10.32
2019-01-25T12:51:28.017Z,10.25
2019-01-25T12:54:33.939Z,10.32
2019-01-25T12:57:39.780Z,10.19
2019-01-25T13:00:45.602Z,10.40
2019-01-25T13:03:51.486Z,10.46
2019-01-25T13:06:57.302Z,10.53
2019-01-25T13:10:03.099Z,10.33
2019-01-25T13:13:08.891Z,10.30
2019-01-25T13:16:14.703Z,10.30
2019-01-25T13:19:20.481Z,10.32
2019-01-25T13:22:26.253Z,10.41
2019-01-25T13:25:32.045Z,10.38
2019-01-25T13:28:41.711Z,10.32
2019-01-25T13:31:45.342Z,10.47
2019-01-25T13:34:52.175Z,10.37
2019-01-25T13:37:57.960Z,10.34
2019-01-25T13:41:04.934Z,10.38
2019-01-25T13:44:10.760Z,10.38
2019-01-25T13:47:16.564Z,10.34
2019-01-25T13:50:24.411Z,10.37
2019-01-25T13:53:30.206Z,10.57
2019-01-25T13:56:36.021Z,10.45
2019-01-25T13:59:41.776Z,10.34
2019-01-25T14:02:48.647Z,10.28
2019-01-25T14:05:54.529Z,10.38
2019-01-25T14:09:00.324Z,10.35
2019-01-25T14:12:06.492Z,10.33
2019-01-25T14:15:12.669Z,10.25
2019-01-25T14:18:18.485Z,10.35
2019-01-25T14:21:24.364Z,10.53
2019-01-25T14:24:30.129Z,10.38
2019-01-25T14:27:35.914Z,10.30
2019-01-25T14:30:43.566Z,10.21
2019-01-25T14:33:49.551Z,10.10
2019-01-25T14:36:55.377Z,10.19
2019-01-25T14:40:01.119Z,10.04
2019-01-25T14:43:07.167Z,9.94
2019-01-25T14:46:12.917Z,10.03
2019-01-25T14:49:18.693Z,9.93
2019-01-25T14:52:24.545Z,9.85
2019-01-25T14:55:30.293Z,9.71
2019-01-25T14:58:36.249Z,9.98
2019-01-25T15:01:42.100Z,9.92
2019-01-25T15:04:47.862Z,9.78
2019-01-25T15:07:54.844Z,9.77
2019-01-25T15:11:00.711Z,9.76
2019-01-25T15:14:07.128Z,9.73
2019-01-25T15:17:12.896Z,9.85
2019-01-25T15:20:20.906Z,9.90
2019-01-25T15:23:26.668Z,9.89
2019-01-25T15:26:32.427Z,9.71
2019-01-25T15:29:38.196Z,9.70
2019-01-25T15:32:44.229Z,9.74
2019-01-25T15:35:49.981Z,9.79
2019-01-25T15:38:55.738Z,9.78
2019-01-25T15:42:01.475Z,9.73
2019-01-25T15:45:08.970Z,9.83
2019-01-25T15:48:14.724Z,9.73
2019-01-25T15:51:20.484Z,9.61
2019-01-25T15:54:26.257Z,9.58
2019-01-25T15:57:32.010Z,9.39
2019-01-25T16:00:37.861Z,9.51
2019-01-25T16:03:43.737Z,9.41
2019-01-25T16:06:49.487Z,9.39
2019-01-25T16:09:55.354Z,9.49
2019-01-25T16:13:01.228Z,9.24
2019-01-25T16:16:07.225Z,9.27
2019-01-25T16:19:13.008Z,9.18
2019-01-25T16:22:18.768Z,9.32
2019-01-25T16:25:30.265Z,9.31
2019-01-25T16:28:36.047Z,9.26
2019-01-25T16:31:41.825Z,9.21
2019-01-25T16:34:47.603Z,9.19
2019-01-25T16:37:53.379Z,9.15
2019-01-25T16:40:59.165Z,9.03
2019-01-25T16:44:05.040Z,9.03
2019-01-25T16:47:10.785Z,8.99
2019-01-25T16:50:23.587Z,9.09
2019-01-25T16:53:24.866Z,9.07
2019-01-25T16:56:30.719Z,8.99
2019-01-25T16:59:36.532Z,8.80
2019-01-25T17:02:42.443Z,8.86
2019-01-25T17:05:48.429Z,9.00
2019-01-25T17:08:54.191Z,8.85
2019-01-25T17:11:59.956Z,8.83
2019-01-25T17:15:06.980Z,8.91
2019-01-25T17:18:13.266Z,8.86
2019-01-25T17:21:19.135Z,8.86
2019-01-25T17:24:24.902Z,8.83
2019-01-25T17:27:30.711Z,8.78
2019-01-25T17:30:37.399Z,8.96
2019-01-25T17:33:43.170Z,8.87
2019-01-25T17:36:48.939Z,9.03
2019-01-25T17:39:54.824Z,8.80
2019-01-25T17:43:00.580Z,8.85
2019-01-25T17:46:06.577Z,8.75
2019-01-25T17:49:12.429Z,8.93
2019-01-25T17:52:18.193Z,8.81
2019-01-25T17:55:24.052Z,8.78
2019-01-25T17:58:29.911Z,8.79
2019-01-25T18:01:35.893Z,8.82
2019-01-25T18:04:41.673Z,8.82
2019-01-25T18:07:47.458Z,8.72
2019-01-25T18:10:53.315Z,8.75
2019-01-25T18:13:59.059Z,8.70
2019-01-25T18:17:04.928Z,8.64
2019-01-25T18:20:12.774Z,8.73
2019-01-25T18:23:18.674Z,8.66
2019-01-25T18:26:26.227Z,8.52
2019-01-25T18:29:51.726Z,8.43
2019-01-25T18:32:57.644Z,8.52
2019-01-25T18:36:03.571Z,8.59
2019-01-25T18:39:10.419Z,8.61
2019-01-25T18:42:16.262Z,8.52
2019-01-25T18:45:22.201Z,8.46
2019-01-25T18:48:28.066Z,8.55
2019-01-25T18:51:33.865Z,8.52
2019-01-25T18:54:39.628Z,8.48
2019-01-25T18:57:45.398Z,8.54
2019-01-25T19:00:51.155Z,8.43
2019-01-25T19:03:56.936Z,8.35
2019-01-25T19:07:02.713Z,8.42
2019-01-25T19:10:11.719Z,8.28
2019-01-25T19:13:17.602Z,8.38
2019-01-25T19:16:23.343Z,8.37
2019-01-25T19:19:29.097Z,8.43
2019-01-25T19:22:34.938Z,8.52
2019-01-25T19:25:40.693Z,8.44
2019-01-25T19:28:46.454Z,8.24
2019-01-25T19:31:52.344Z,8.30
2019-01-25T19:34:58.186Z,8.37
2019-01-25T19:38:04.141Z,8.39
2019-01-25T19:41:10.019Z,8.34
2019-01-25T19:44:15.832Z,8.25
2019-01-25T19:47:21.731Z,8.31
2019-01-25T19:50:27.716Z,8.36
2019-01-25T19:53:33.970Z,8.51
2019-01-25T19:56:39.842Z,8.48
2019-01-25T19:59:45.634Z,8.41
2019-01-25T20:02:51.532Z,8.32
2019-01-25T20:05:57.431Z,8.42
2019-01-25T20:09:04.069Z,8.36
2019-01-25T20:12:11.573Z,8.48
2019-01-25T20:15:19.563Z,8.47
2019-01-25T20:18:25.465Z,8.29
2019-01-25T20:21:31.231Z,8.37
2019-01-25T20:24:36.997Z,8.39
2019-01-25T20:27:42.865Z,8.32
2019-01-25T20:30:50.029Z,8.41
2019-01-25T20:33:55.779Z,8.45
2019-01-25T20:37:01.654Z,8.25
2019-01-25T20:40:10.411Z,8.46
2019-01-25T20:43:16.272Z,8.51
2019-01-25T20:46:22.030Z,8.53
2019-01-25T20:49:28.058Z,8.61
2019-01-25T20:52:33.860Z,8.55
2019-01-25T20:55:39.703Z,8.42
2019-01-25T20:58:45.441Z,8.64
2019-01-25T21:01:51.278Z,8.61
2019-01-25T21:04:57.039Z,8.54
2019-01-25T21:08:02.906Z,8.46
2019-01-25T21:11:08.759Z,8.59
2019-01-25T21:14:14.661Z,8.64
2019-01-25T21:17:20.585Z,8.67
2019-01-25T21:20:46.635Z,8.75
2019-01-25T21:23:52.509Z,8.75
2019-01-25T21:26:58.367Z,8.81
2019-01-25T21:30:05.544Z,8.71
2019-01-25T21:33:11.559Z,8.71
2019-01-25T21:36:17.313Z,8.70
2019-01-25T21:39:23.189Z,8.85
2019-01-25T21:42:28.990Z,8.75
2019-01-25T21:45:43.030Z,8.67
2019-01-25T21:48:44.186Z,8.82
2019-01-25T21:51:49.936Z,8.95
2019-01-25T21:54:55.701Z,8.87
2019-01-25T21:58:05.522Z,8.79
2019-01-25T22:01:09.045Z,9.07
2019-01-25T22:04:14.787Z,8.93
2019-01-25T22:07:20.772Z,8.90
2019-01-25T22:10:33.283Z,8.79
2019-01-25T22:13:39.282Z,8.77
2019-01-25T22:16:45.132Z,8.68
2019-01-25T22:19:52.105Z,8.64
2019-01-25T22:22:58.276Z,8.54
2019-01-25T22:26:04.141Z,8.82
2019-01-25T22:29:10.014Z,8.76
2019-01-25T22:32:15.891Z,8.73
2019-01-25T22:35:21.882Z,8.72
2019-01-25T22:38:27.646Z,8.81
2019-01-25T22:41:33.407Z,8.84
2019-01-25T22:44:39.166Z,8.91
2019-01-25T22:47:45.019Z,8.98
2019-01-25T22:50:50.775Z,8.81
2019-01-25T22:53:56.549Z,8.81
2019-01-25T22:57:02.297Z,8.89
2019-01-25T23:00:18.886Z,9.00
2019-01-25T23:04:16.206Z,8.88
2019-01-25T23:07:28.175Z,8.96
2019-01-25T23:10:33.967Z,9.07
2019-01-25T23:13:39.717Z,8.74
2019-01-25T23:16:45.473Z,8.84
2019-01-25T23:19:51.211Z,8.89
2019-01-25T23:22:57.079Z,9.02
2019-01-25T23:26:02.934Z,8.84
2019-01-25T23:29:09.888Z,8.87
2019-01-25T23:32:15.841Z,8.88
2019-01-25T23:35:21.700Z,9.01
2019-01-25T23:38:27.434Z,8.94
2019-01-25T23:41:34.292Z,8.83
2019-01-25T23:44:40.054Z,8.89
2019-01-25T23:47:45.809Z,8.93
2019-01-25T23:50:51.561Z,9.13
2019-01-25T23:53:57.299Z,8.97
2019-01-25T23:57:03.063Z,8.98
